createdAt,value
2022-11-27T00:01:36.320Z,18066.41
2022-11-27T00:04:05.292Z,17987.19
2022-11-27T00:06:34.928Z,18062.34
2022-11-27T00:09:07.900Z,18044.06
2022-11-27T00:11:39.287Z,18048.13
2022-11-27T00:14:09.079Z,18058.28
2022-11-27T00:16:37.236Z,18052.19
2022-11-27T00:19:05.900Z,18046.09
2022-11-27T00:21:36.507Z,18062.34
2022-11-27T00:24:09.151Z,18015.63
2022-11-27T00:26:39.072Z,18050.16
2022-11-27T00:29:08.007Z,18066.41
2022-11-27T00:31:38.217Z,18025.78
2022-11-27T00:34:09.229Z,18025.78
2022-11-27T00:36:38.666Z,18011.56
2022-11-27T00:39:07.883Z,18029.84
2022-11-27T00:41:36.366Z,18029.84
2022-11-27T00:44:06.984Z,18011.56
2022-11-27T00:46:36.195Z,18013.59
2022-11-27T00:49:07.490Z,18040.00
2022-11-27T00:51:36.342Z,18033.91
2022-11-27T00:54:04.797Z,18017.66
2022-11-27T00:56:36.287Z,17997.34
2022-11-27T00:59:07.610Z,17997.34
2022-11-27T01:01:38.829Z,18007.50
2022-11-27T01:04:09.909Z,18040.00
2022-11-27T01:06:38.525Z,17993.28
2022-11-27T01:09:07.105Z,18044.06
2022-11-27T01:11:36.866Z,18040.00
2022-11-27T01:14:11.670Z,18031.88
2022-11-27T01:16:43.094Z,18011.56
2022-11-27T01:19:13.075Z,18060.31
2022-11-27T01:21:42.309Z,18048.13
2022-11-27T01:24:13.915Z,18050.16
2022-11-27T01:26:42.108Z,18037.97
2022-11-27T01:29:12.204Z,18042.03
2022-11-27T01:31:40.519Z,18066.41
2022-11-27T01:34:15.426Z,18058.28
2022-11-27T01:36:44.253Z,18064.38
2022-11-27T01:39:18.421Z,18078.59
2022-11-27T01:41:49.354Z,18060.31
2022-11-27T01:44:55.404Z,18088.75
2022-11-27T01:47:40.183Z,18058.28
2022-11-27T01:50:17.955Z,18031.88
2022-11-27T01:52:54.247Z,18058.28
2022-11-27T01:55:30.118Z,18048.13
2022-11-27T01:58:03.208Z,18048.13
2022-11-27T02:00:32.689Z,18037.97
2022-11-27T02:03:01.149Z,18044.06
2022-11-27T02:05:31.057Z,18042.03
2022-11-27T02:08:04.472Z,18058.28
2022-11-27T02:10:47.288Z,18033.91
2022-11-27T02:13:31.526Z,18054.22
2022-11-27T02:16:17.732Z,18050.16
2022-11-27T02:18:59.792Z,18033.91
2022-11-27T02:21:38.275Z,18031.88
2022-11-27T02:24:50.600Z,18046.09
2022-11-27T02:28:06.430Z,18044.06
2022-11-27T02:30:44.803Z,18009.53
2022-11-27T02:33:19.458Z,18031.88
2022-11-27T02:35:56.961Z,18013.59
2022-11-27T02:38:31.908Z,18017.66
2022-11-27T02:41:08.126Z,18031.88
2022-11-27T02:43:40.672Z,18031.88
2022-11-27T02:46:13.931Z,18050.16
2022-11-27T02:48:48.552Z,18033.91
2022-11-27T02:51:23.481Z,18052.19
2022-11-27T02:53:56.382Z,18042.03
2022-11-27T02:56:29.596Z,18052.19
2022-11-27T02:59:02.835Z,18050.16
2022-11-27T03:01:41.464Z,18086.72
2022-11-27T03:04:16.487Z,18040.00
2022-11-27T03:06:51.914Z,18042.03
2022-11-27T03:09:27.175Z,18029.84
2022-11-27T03:11:55.834Z,18070.47
2022-11-27T03:14:24.836Z,18035.94
2022-11-27T03:17:07.172Z,18056.25
2022-11-27T03:19:46.763Z,18037.97
2022-11-27T03:22:16.325Z,18094.84
2022-11-27T03:24:44.745Z,18074.53
2022-11-27T03:27:16.496Z,18088.75
2022-11-27T03:29:51.015Z,18070.47
2022-11-27T03:32:21.388Z,18062.34
2022-11-27T03:34:49.985Z,18084.69
2022-11-27T03:37:18.522Z,18062.34
2022-11-27T03:39:46.981Z,18074.53
2022-11-27T03:42:25.061Z,18037.97
2022-11-27T03:45:06.810Z,18070.47
2022-11-27T03:47:59.872Z,18074.53
2022-11-27T03:50:43.494Z,18086.72
2022-11-27T03:53:23.954Z,18044.06
2022-11-27T03:56:09.648Z,18052.19
2022-11-27T03:58:46.009Z,18066.41
2022-11-27T04:01:18.784Z,18050.16
2022-11-27T04:03:48.416Z,18062.34
2022-11-27T04:06:16.795Z,18052.19
2022-11-27T04:08:47.442Z,18042.03
2022-11-27T04:11:16.681Z,18056.25
2022-11-27T04:13:44.883Z,18025.78
2022-11-27T04:16:13.147Z,18064.38
2022-11-27T04:18:41.278Z,18058.28
2022-11-27T04:21:11.972Z,18070.47
2022-11-27T04:23:40.783Z,18096.88
2022-11-27T04:26:09.124Z,18094.84
2022-11-27T04:28:37.477Z,18064.38
2022-11-27T04:31:06.035Z,18088.75
2022-11-27T04:33:34.414Z,18070.47
2022-11-27T04:36:02.609Z,18078.59
2022-11-27T04:38:32.078Z,18096.88
2022-11-27T04:41:00.825Z,18102.97
2022-11-27T04:43:29.448Z,18123.28
2022-11-27T04:45:57.581Z,18056.25
2022-11-27T04:48:25.706Z,18098.91
2022-11-27T04:50:56.909Z,18096.88
2022-11-27T04:53:25.005Z,18068.44
2022-11-27T04:55:54.598Z,18096.88
2022-11-27T04:58:22.727Z,18078.59
2022-11-27T05:00:50.961Z,18088.75
2022-11-27T05:03:19.200Z,18074.53
2022-11-27T05:05:54.985Z,18080.63
2022-11-27T05:08:23.086Z,18100.94
2022-11-27T05:11:02.835Z,18029.84
2022-11-27T05:13:31.462Z,18090.78
2022-11-27T05:15:59.696Z,18060.31
2022-11-27T05:18:28.167Z,18098.91
2022-11-27T05:21:01.049Z,18082.66
2022-11-27T05:23:30.465Z,18123.28
2022-11-27T05:26:00.569Z,18086.72
2022-11-27T05:28:28.831Z,18064.38
2022-11-27T05:30:57.242Z,18066.41
2022-11-27T05:33:25.463Z,18115.16
2022-11-27T05:35:53.555Z,18098.91
2022-11-27T05:38:21.663Z,18078.59
2022-11-27T05:40:50.248Z,18105.00
2022-11-27T05:43:19.706Z,18025.78
2022-11-27T05:45:47.836Z,18074.53
2022-11-27T05:48:16.223Z,18080.63
2022-11-27T05:50:44.363Z,18086.72
2022-11-27T05:53:12.454Z,18082.66
2022-11-27T05:55:40.565Z,18074.53
2022-11-27T05:58:09.408Z,18092.81
2022-11-27T06:00:38.924Z,18068.44
2022-11-27T06:03:07.201Z,18141.56
2022-11-27T06:05:39.208Z,18084.69
2022-11-27T06:08:07.409Z,18064.38
2022-11-27T06:10:35.609Z,18066.41
2022-11-27T06:13:03.743Z,18078.59
2022-11-27T06:15:31.866Z,18062.34
2022-11-27T06:18:01.335Z,18086.72
2022-11-27T06:20:29.543Z,18056.25
2022-11-27T06:22:57.741Z,18060.31
2022-11-27T06:25:27.014Z,18117.19
2022-11-27T06:27:55.144Z,18088.75
2022-11-27T06:30:23.437Z,18054.22
2022-11-27T06:32:51.622Z,18074.53
2022-11-27T06:35:21.076Z,18062.34
2022-11-27T06:37:49.238Z,18088.75
2022-11-27T06:40:17.597Z,18076.56
2022-11-27T06:42:45.741Z,18054.22
2022-11-27T06:45:14.011Z,18040.00
2022-11-27T06:47:42.109Z,18068.44
2022-11-27T06:50:11.074Z,18060.31
2022-11-27T06:52:40.917Z,18044.06
2022-11-27T06:55:09.781Z,18086.72
2022-11-27T06:57:37.891Z,18076.56
2022-11-27T07:00:08.149Z,18082.66
2022-11-27T07:02:36.354Z,18084.69
2022-11-27T07:05:04.970Z,18076.56
2022-11-27T07:07:33.162Z,18107.03
2022-11-27T07:10:02.647Z,18068.44
2022-11-27T07:12:30.753Z,18082.66
2022-11-27T07:15:02.852Z,18062.34
2022-11-27T07:17:32.251Z,18058.28
2022-11-27T07:20:00.395Z,18050.16
2022-11-27T07:22:28.487Z,18074.53
2022-11-27T07:24:56.620Z,18066.41
2022-11-27T07:27:26.589Z,18102.97
2022-11-27T07:29:54.712Z,18111.09
2022-11-27T07:32:22.843Z,18131.41
2022-11-27T07:34:50.941Z,18115.16
2022-11-27T07:37:19.084Z,18143.59
2022-11-27T07:40:02.105Z,18174.06
2022-11-27T07:42:39.890Z,18143.59
2022-11-27T07:45:09.645Z,18170.00
2022-11-27T07:47:38.000Z,18204.53
2022-11-27T07:50:09.254Z,18165.94
2022-11-27T07:52:41.903Z,18184.22
2022-11-27T07:55:11.607Z,18184.22
2022-11-27T07:57:42.353Z,18141.56
2022-11-27T08:00:12.145Z,18153.75
2022-11-27T08:02:40.332Z,18210.63
2022-11-27T08:05:12.618Z,18216.72
2022-11-27T08:07:41.799Z,18204.53
2022-11-27T08:10:10.380Z,18243.16
2022-11-27T08:12:39.950Z,18222.81
2022-11-27T08:15:10.230Z,18216.72
2022-11-27T08:17:38.502Z,18235.00
2022-11-27T08:20:08.843Z,18210.63
2022-11-27T08:22:37.257Z,18251.28
2022-11-27T08:25:06.326Z,18251.28
2022-11-27T08:27:36.246Z,18253.31
2022-11-27T08:30:07.756Z,18255.34
2022-11-27T08:32:39.271Z,18269.56
2022-11-27T08:35:08.501Z,18306.13
2022-11-27T08:37:37.395Z,18308.16
2022-11-27T08:40:07.302Z,18377.22
2022-11-27T08:42:35.501Z,18434.13
2022-11-27T08:45:05.551Z,18464.59
2022-11-27T08:47:33.738Z,18470.69
2022-11-27T08:50:01.865Z,18440.22
2022-11-27T08:52:30.121Z,18478.81
2022-11-27T08:54:59.091Z,18458.50
2022-11-27T08:57:28.392Z,18480.84
2022-11-27T08:59:56.513Z,18488.97
2022-11-27T09:02:25.921Z,18486.94
2022-11-27T09:04:54.075Z,18482.88
2022-11-27T09:07:22.231Z,18478.81
2022-11-27T09:09:50.290Z,18507.25
2022-11-27T09:12:18.367Z,18501.16
2022-11-27T09:14:46.578Z,18529.59
2022-11-27T09:17:14.707Z,18515.38
2022-11-27T09:19:44.122Z,18521.47
2022-11-27T09:22:12.358Z,18531.63
2022-11-27T09:24:40.797Z,18545.84
2022-11-27T09:27:10.187Z,18545.84
2022-11-27T09:29:38.676Z,18543.81
2022-11-27T09:32:07.170Z,18570.22
2022-11-27T09:34:37.648Z,18566.16
2022-11-27T09:37:07.246Z,18592.59
2022-11-27T09:39:35.394Z,18612.91
2022-11-27T09:42:09.590Z,18606.81
2022-11-27T09:44:45.305Z,18655.56
2022-11-27T09:47:22.375Z,18686.03
2022-11-27T09:49:58.548Z,18688.06
2022-11-27T09:52:40.765Z,18679.94
2022-11-27T09:55:18.370Z,18708.41
2022-11-27T09:58:00.474Z,18708.41
2022-11-27T10:00:28.973Z,18688.06
2022-11-27T10:02:57.276Z,18702.28
2022-11-27T10:05:30.060Z,18700.25
2022-11-27T10:08:32.787Z,18696.19
2022-11-27T10:11:20.218Z,18700.25
2022-11-27T10:14:18.571Z,18738.88
2022-11-27T10:16:55.166Z,18700.25
2022-11-27T10:19:36.914Z,18722.63
2022-11-27T10:22:19.688Z,18755.13
2022-11-27T10:25:08.985Z,18765.28
2022-11-27T10:27:46.187Z,18773.41
2022-11-27T10:30:19.059Z,18771.38
2022-11-27T10:32:55.714Z,18765.28
2022-11-27T10:35:27.397Z,18793.72
2022-11-27T10:38:06.439Z,18740.91
2022-11-27T10:40:43.674Z,18783.56
2022-11-27T10:43:20.069Z,18828.28
2022-11-27T10:45:54.373Z,18793.72
2022-11-27T10:48:23.850Z,18824.22
2022-11-27T10:50:52.450Z,18854.69
2022-11-27T10:53:30.287Z,18868.91
2022-11-27T10:56:22.632Z,18887.19
2022-11-27T10:58:57.928Z,18887.19
2022-11-27T11:01:30.603Z,18919.69
2022-11-27T11:04:24.728Z,18887.19
2022-11-27T11:06:56.274Z,18889.22
2022-11-27T11:09:29.015Z,18891.25
2022-11-27T11:12:09.209Z,18913.59
2022-11-27T11:14:37.674Z,18911.56
2022-11-27T11:17:18.547Z,18862.81
2022-11-27T11:19:46.896Z,18860.78
2022-11-27T11:22:17.925Z,18879.06
2022-11-27T11:24:49.553Z,18891.25
2022-11-27T11:27:24.040Z,18915.63
2022-11-27T11:29:54.846Z,18901.41
2022-11-27T11:32:29.183Z,18935.97
2022-11-27T11:35:02.842Z,18984.72
2022-11-27T11:37:34.465Z,18968.47
2022-11-27T11:40:10.878Z,18976.59
2022-11-27T11:42:55.560Z,18972.53
2022-11-27T11:45:28.544Z,19009.09
2022-11-27T11:48:00.919Z,18986.75
2022-11-27T11:50:38.158Z,19000.97
2022-11-27T11:53:16.371Z,18986.75
2022-11-27T11:56:12.329Z,19029.44
2022-11-27T11:58:55.720Z,19021.31
2022-11-27T12:01:54.203Z,18984.72
2022-11-27T12:05:02.879Z,19023.34
2022-11-27T12:07:55.221Z,19005.03
2022-11-27T12:10:31.304Z,19000.97
2022-11-27T12:13:14.875Z,19005.03
2022-11-27T12:15:52.702Z,19033.50
2022-11-27T12:18:31.885Z,19033.50
2022-11-27T12:21:16.049Z,19045.69
2022-11-27T12:24:11.099Z,19029.44
2022-11-27T12:27:01.127Z,19031.47
2022-11-27T12:30:06.640Z,19041.63
2022-11-27T12:33:22.085Z,19045.69
2022-11-27T12:36:01.891Z,19086.31
2022-11-27T12:38:58.898Z,19145.25
2022-11-27T12:41:54.781Z,19204.19
2022-11-27T12:44:34.817Z,19228.56
2022-11-27T12:47:11.766Z,19204.19
2022-11-27T12:49:47.049Z,19173.69
2022-11-27T12:52:20.661Z,19151.34
2022-11-27T12:54:55.671Z,19106.66
2022-11-27T12:57:36.548Z,19068.03
2022-11-27T13:00:08.698Z,19098.50
2022-11-27T13:02:43.651Z,19066.00
2022-11-27T13:05:21.108Z,19025.38
2022-11-27T13:07:56.445Z,19011.13
2022-11-27T13:10:31.185Z,19007.06
2022-11-27T13:13:07.140Z,19005.03
2022-11-27T13:15:43.971Z,19037.56
2022-11-27T13:18:21.210Z,19023.34
2022-11-27T13:20:53.415Z,18974.56
2022-11-27T13:23:22.187Z,19000.97
2022-11-27T13:25:56.282Z,19013.16
2022-11-27T13:28:42.316Z,19000.97
2022-11-27T13:31:21.349Z,18984.72
2022-11-27T13:33:52.027Z,18996.91
2022-11-27T13:36:26.628Z,19007.06
2022-11-27T13:38:59.775Z,19017.25
2022-11-27T13:41:35.895Z,18998.94
2022-11-27T13:44:11.460Z,19076.16
2022-11-27T13:46:49.371Z,19037.56
2022-11-27T13:49:29.147Z,19076.16
2022-11-27T13:52:11.748Z,19043.66
2022-11-27T13:54:40.511Z,19051.78
2022-11-27T13:57:18.122Z,19045.69
2022-11-27T13:59:57.957Z,19082.25
2022-11-27T14:02:27.044Z,19059.91
2022-11-27T14:04:56.740Z,19063.97
2022-11-27T14:07:41.113Z,19015.19
2022-11-27T14:10:16.609Z,19041.63
2022-11-27T14:12:55.853Z,19017.25
2022-11-27T14:15:27.348Z,19041.63
2022-11-27T14:18:08.482Z,19049.75
2022-11-27T14:20:48.012Z,19017.25
2022-11-27T14:23:29.563Z,18994.88
2022-11-27T14:26:11.862Z,19013.16
2022-11-27T14:28:46.116Z,19000.97
2022-11-27T14:31:29.875Z,19017.25
2022-11-27T14:34:16.871Z,19000.97
2022-11-27T14:36:46.478Z,18998.94
2022-11-27T14:39:26.427Z,18948.16
2022-11-27T14:42:02.235Z,18982.69
2022-11-27T14:44:30.712Z,18980.66
2022-11-27T14:47:03.402Z,18942.06
2022-11-27T14:49:34.103Z,18921.75
2022-11-27T14:52:07.081Z,18933.94
2022-11-27T14:54:40.167Z,18942.06
2022-11-27T14:57:16.051Z,18909.53
2022-11-27T14:59:44.181Z,18944.09
2022-11-27T15:02:23.313Z,18893.28
2022-11-27T15:05:05.754Z,18891.25
2022-11-27T15:07:45.304Z,18838.44
2022-11-27T15:10:33.413Z,18875.00
2022-11-27T15:13:03.840Z,18905.47
2022-11-27T15:15:44.207Z,18850.63
2022-11-27T15:18:23.939Z,18820.16
2022-11-27T15:20:53.806Z,18885.16
2022-11-27T15:23:27.730Z,18866.88
2022-11-27T15:26:15.814Z,18860.78
2022-11-27T15:28:53.311Z,18895.31
2022-11-27T15:31:29.708Z,18899.38
2022-11-27T15:34:05.453Z,18856.72
2022-11-27T15:36:40.956Z,18866.88
2022-11-27T15:39:23.094Z,18893.28
2022-11-27T15:41:58.580Z,18891.25
2022-11-27T15:44:29.091Z,18877.03
2022-11-27T15:47:01.243Z,18903.44
2022-11-27T15:49:30.351Z,18909.53
2022-11-27T15:51:59.141Z,18883.13
2022-11-27T15:54:27.296Z,18895.31
2022-11-27T15:56:56.735Z,18923.78
2022-11-27T15:59:27.199Z,18917.66
2022-11-27T16:01:55.946Z,18907.50
2022-11-27T16:04:24.082Z,18946.13
2022-11-27T16:06:52.128Z,18911.56
2022-11-27T16:09:20.806Z,18893.28
2022-11-27T16:11:49.232Z,18889.22
2022-11-27T16:14:18.641Z,18881.09
2022-11-27T16:16:46.948Z,18891.25
2022-11-27T16:19:15.015Z,18883.13
2022-11-27T16:21:43.665Z,18887.19
2022-11-27T16:24:15.060Z,18879.06
2022-11-27T16:26:43.898Z,18903.44
2022-11-27T16:29:12.438Z,18858.75
2022-11-27T16:31:42.272Z,18883.13
2022-11-27T16:34:10.512Z,18875.00
2022-11-27T16:36:41.370Z,18881.09
2022-11-27T16:39:09.459Z,18891.25
2022-11-27T16:41:37.567Z,18870.94
2022-11-27T16:44:13.185Z,18901.41
2022-11-27T16:46:44.386Z,18866.88
2022-11-27T16:49:14.821Z,18866.88
2022-11-27T16:51:43.784Z,18868.91
2022-11-27T16:54:14.346Z,18879.06
2022-11-27T16:56:42.725Z,18850.63
2022-11-27T16:59:13.500Z,18856.72
2022-11-27T17:01:44.118Z,18846.56
2022-11-27T17:04:21.049Z,18834.38
2022-11-27T17:06:50.879Z,18868.91
2022-11-27T17:09:20.360Z,18856.72
2022-11-27T17:11:49.421Z,18832.34
2022-11-27T17:14:20.053Z,18844.53
2022-11-27T17:16:49.496Z,18820.16
2022-11-27T17:19:18.311Z,18822.19
2022-11-27T17:21:46.994Z,18818.09
2022-11-27T17:24:17.210Z,18812.00
2022-11-27T17:26:47.079Z,18777.47
2022-11-27T17:29:18.581Z,18777.47
2022-11-27T17:31:46.879Z,18797.78
2022-11-27T17:34:18.682Z,18793.72
2022-11-27T17:36:50.873Z,18759.19
2022-11-27T17:39:18.949Z,18785.59
2022-11-27T17:41:46.986Z,18761.22
2022-11-27T17:44:15.307Z,18826.25
2022-11-27T17:46:47.929Z,18785.59
2022-11-27T17:49:19.282Z,18789.66
2022-11-27T17:51:47.323Z,18785.59
2022-11-27T17:54:15.472Z,18749.03
2022-11-27T17:56:43.508Z,18771.38
2022-11-27T17:59:11.639Z,18753.09
2022-11-27T18:01:39.791Z,18777.47
2022-11-27T18:04:10.251Z,18749.03
2022-11-27T18:06:39.717Z,18730.75
2022-11-27T18:09:07.866Z,18708.41
2022-11-27T18:11:35.906Z,18694.16
2022-11-27T18:14:04.762Z,18734.81
2022-11-27T18:16:36.373Z,18728.72
2022-11-27T18:19:07.657Z,18700.25
2022-11-27T18:21:36.965Z,18712.47
2022-11-27T18:24:23.083Z,18684.00
2022-11-27T18:27:08.770Z,18684.00
2022-11-27T18:29:38.259Z,18663.69
2022-11-27T18:32:07.421Z,18671.81
2022-11-27T18:34:36.388Z,18684.00
2022-11-27T18:37:05.581Z,18663.69
2022-11-27T18:39:36.218Z,18694.16
2022-11-27T18:42:05.735Z,18726.69
2022-11-27T18:44:39.502Z,18696.19
2022-11-27T18:47:11.130Z,18704.31
2022-11-27T18:49:40.650Z,18686.03
2022-11-27T18:52:10.362Z,18696.19
2022-11-27T18:54:39.786Z,18686.03
2022-11-27T18:57:07.967Z,18692.13
2022-11-27T18:59:36.124Z,18700.25
2022-11-27T19:02:05.364Z,18688.06
2022-11-27T19:04:37.348Z,18742.94
2022-11-27T19:07:05.614Z,18688.06
2022-11-27T19:09:34.669Z,18704.31
2022-11-27T19:12:04.309Z,18700.25
2022-11-27T19:14:32.438Z,18706.38
2022-11-27T19:17:00.681Z,18696.19
2022-11-27T19:22:20.539Z,18663.69
2022-11-27T19:24:49.132Z,18684.00
2022-11-27T19:27:18.597Z,18686.03
2022-11-27T19:29:46.669Z,18659.63
2022-11-27T19:32:14.729Z,18681.97
2022-11-27T19:34:42.988Z,18690.09
2022-11-27T19:37:11.266Z,18657.59
2022-11-27T19:39:39.321Z,18669.78
2022-11-27T19:42:07.675Z,18635.25
2022-11-27T19:44:37.374Z,18675.88
2022-11-27T19:47:06.550Z,18629.16
2022-11-27T19:49:34.610Z,18647.44
2022-11-27T19:52:02.681Z,18651.50
2022-11-27T19:54:30.722Z,18653.53
2022-11-27T19:56:58.776Z,18633.22
2022-11-27T19:59:27.367Z,18661.66
2022-11-27T20:01:57.424Z,18639.31
2022-11-27T20:04:25.614Z,18653.53
2022-11-27T20:06:54.061Z,18639.31
2022-11-27T20:09:22.154Z,18651.50
2022-11-27T20:11:50.255Z,18627.13
2022-11-27T20:14:19.338Z,18651.50
2022-11-27T20:16:47.447Z,18655.56
2022-11-27T20:19:16.977Z,18686.03
2022-11-27T20:21:46.606Z,18653.53
2022-11-27T20:24:15.755Z,18661.66
2022-11-27T20:26:44.214Z,18643.38
2022-11-27T20:29:12.779Z,18645.41
2022-11-27T20:31:44.601Z,18619.00
2022-11-27T20:34:20.925Z,18645.41
2022-11-27T20:36:50.336Z,18637.28
2022-11-27T20:39:21.654Z,18671.81
2022-11-27T20:41:51.767Z,18645.41
2022-11-27T20:44:20.386Z,18645.41
2022-11-27T20:46:49.125Z,18647.44
2022-11-27T20:49:20.474Z,18671.81
2022-11-27T20:51:50.520Z,18688.06
2022-11-27T20:54:19.225Z,18653.53
2022-11-27T20:56:47.850Z,18647.44
2022-11-27T20:59:15.982Z,18675.88
2022-11-27T21:01:44.318Z,18669.78
2022-11-27T21:04:23.067Z,18681.97
2022-11-27T21:06:52.367Z,18651.50
2022-11-27T21:09:21.885Z,18679.94
2022-11-27T21:11:50.372Z,18692.13
2022-11-27T21:14:19.449Z,18655.56
2022-11-27T21:16:49.912Z,18653.53
2022-11-27T21:19:22.440Z,18657.59
2022-11-27T21:21:53.233Z,18675.88
2022-11-27T21:24:27.329Z,18671.81
2022-11-27T21:26:55.516Z,18679.94
2022-11-27T21:29:25.825Z,18647.44
2022-11-27T21:31:55.230Z,18647.44
2022-11-27T21:34:26.176Z,18643.38
2022-11-27T21:36:54.476Z,18665.72
2022-11-27T21:39:23.750Z,18657.59
2022-11-27T21:41:55.720Z,18651.50
2022-11-27T21:44:25.816Z,18619.00
2022-11-27T21:46:54.135Z,18619.00
2022-11-27T21:49:24.123Z,18623.06
2022-11-27T21:51:53.508Z,18629.16
2022-11-27T21:54:23.090Z,18673.84
2022-11-27T21:56:52.934Z,18637.28
2022-11-27T21:59:21.470Z,18645.41
2022-11-27T22:01:49.799Z,18631.19
2022-11-27T22:04:18.506Z,18649.47
2022-11-27T22:06:48.408Z,18635.25
2022-11-27T22:09:16.711Z,18641.34
2022-11-27T22:11:46.443Z,18659.63
2022-11-27T22:14:17.111Z,18651.50
2022-11-27T22:16:46.958Z,18665.72
2022-11-27T22:19:15.540Z,18655.56
2022-11-27T22:21:44.999Z,18667.75
2022-11-27T22:24:19.305Z,18647.44
2022-11-27T22:26:48.844Z,18661.66
2022-11-27T22:29:17.100Z,18679.94
2022-11-27T22:31:45.491Z,18673.84
2022-11-27T22:34:13.659Z,18686.03
2022-11-27T22:36:41.906Z,18659.63
2022-11-27T22:39:10.475Z,18675.88
2022-11-27T22:41:41.903Z,18686.03
2022-11-27T22:44:14.611Z,18688.06
2022-11-27T22:46:43.886Z,18643.38
2022-11-27T22:49:14.195Z,18651.50
2022-11-27T22:51:43.167Z,18671.81
2022-11-27T22:54:17.561Z,18704.31
2022-11-27T22:56:47.974Z,18688.06
2022-11-27T22:59:34.101Z,18659.63
2022-11-27T23:02:03.668Z,18659.63
2022-11-27T23:04:31.888Z,18663.69
2022-11-27T23:07:00.620Z,18671.81
2022-11-27T23:09:28.798Z,18659.63
2022-11-27T23:11:58.655Z,18669.78
2022-11-27T23:14:27.451Z,18643.38
2022-11-27T23:16:55.675Z,18671.81
2022-11-27T23:19:24.050Z,18675.88
2022-11-27T23:21:52.238Z,18671.81
2022-11-27T23:24:20.537Z,18643.38
2022-11-27T23:26:48.736Z,18637.28
2022-11-27T23:29:18.269Z,18610.88
2022-11-27T23:31:46.468Z,18623.06
2022-11-27T23:34:16.393Z,18627.13
2022-11-27T23:36:45.095Z,18616.97
2022-11-27T23:39:14.775Z,18627.13
2022-11-27T23:41:43.469Z,18621.03
2022-11-27T23:44:11.625Z,18633.22
2022-11-27T23:46:41.363Z,18621.03
2022-11-27T23:49:09.808Z,18614.94
2022-11-27T23:51:38.056Z,18643.38
2022-11-27T23:54:10.372Z,18606.81
2022-11-27T23:56:39.575Z,18625.09
2022-11-27T23:59:08.094Z,18633.22
